Time;durP1;ratioP1;P1;durP2;ratioP2;P2;SDS_P1;SDS_P2;PMS_P1;PMS_P2;Temp;Humidity;BMP_temperature;BMP_pressure;BME280_temperature;BME280_humidity;BME280_pressure;Samples;Min_cycle;Max_cycle;Signal;HPM_P1;HPM_P2
2023/08/03 00:02:33;;;;;;;5.82;1.38;;;;;;;15.54;100.00;98492.38;7701588;23;20108;-95
2023/08/03 00:05:36;;;;;;;4.10;1.38;;;;;;;15.52;100.00;98487.34;7719233;22;20047;-94
2023/08/03 00:08:39;;;;;;;3.97;1.08;;;;;;;15.44;100.00;98484.16;7739951;23;20421;-94
2023/08/03 00:11:41;;;;;;;8.15;1.13;;;;;;;15.39;100.00;98484.75;7711954;23;20031;-94
2023/08/03 00:14:43;;;;;;;6.97;1.50;;;;;;;15.36;100.00;98481.78;7739439;23;20024;-96
2023/08/03 00:17:46;;;;;;;6.15;1.27;;;;;;;15.31;100.00;98481.56;7740095;23;20471;-95
2023/08/03 00:20:50;;;;;;;3.67;1.25;;;;;;;15.27;100.00;98481.97;7737940;23;20027;-95
2023/08/03 00:23:52;;;;;;;2.35;1.10;;;;;;;15.31;100.00;98489.41;7739764;23;20359;-95
2023/08/03 00:26:54;;;;;;;3.90;1.25;;;;;;;15.34;100.00;98479.34;7739801;23;20020;-94
2023/08/03 00:29:56;;;;;;;4.97;1.30;;;;;;;15.38;100.00;98487.56;7712974;23;20016;-95
2023/08/03 00:33:04;;;;;;;6.63;1.52;;;;;;;15.36;100.00;98473.94;7711638;23;20031;-96
2023/08/03 00:36:06;;;;;;;5.93;1.77;;;;;;;15.33;100.00;98469.94;7739665;23;20022;-95
2023/08/03 00:39:08;;;;;;;9.57;1.55;;;;;;;15.29;100.00;98460.91;7711575;23;20028;-95
2023/08/03 00:42:11;;;;;;;3.17;1.23;;;;;;;15.21;100.00;98456.72;7712910;23;20020;-95
2023/08/03 00:45:13;;;;;;;2.03;1.25;;;;;;;15.16;100.00;98453.91;7739798;23;20024;-95
2023/08/03 00:48:19;;;;;;;5.13;1.20;;;;;;;15.12;100.00;98450.09;7712669;23;20024;-95
2023/08/03 00:51:21;;;;;;;4.30;1.08;;;;;;;15.02;100.00;98441.88;7712129;23;20366;-96
2023/08/03 00:54:25;;;;;;;3.08;1.00;;;;;;;14.99;100.00;98442.28;7736804;23;20615;-96
2023/08/03 00:57:28;;;;;;;2.95;1.20;;;;;;;14.99;100.00;98434.47;7739806;23;20019;-96
2023/08/03 01:00:31;;;;;;;4.65;1.30;;;;;;;15.02;100.00;98434.06;7736901;23;20020;-96
2023/08/03 01:03:34;;;;;;;4.90;1.13;;;;;;;15.02;100.00;98428.84;7737062;22;20035;-96
2023/08/03 01:06:37;;;;;;;4.63;1.20;;;;;;;15.03;100.00;98431.28;7737363;23;20349;-96
2023/08/03 01:09:39;;;;;;;8.75;1.50;;;;;;;14.98;100.00;98431.09;7687565;23;20529;-96
2023/08/03 01:12:45;;;;;;;5.35;1.25;;;;;;;14.95;100.00;98422.84;7739399;23;20020;-95
2023/08/03 01:15:57;;;;;;;3.72;1.20;;;;;;;14.98;100.00;98404.19;7711827;23;20702;-96
2023/08/03 01:19:05;;;;;;;4.57;1.30;;;;;;;14.93;100.00;98404.00;7711200;23;20394;-96
2023/08/03 01:22:12;;;;;;;3.97;1.52;;;;;;;14.93;100.00;98401.41;7712560;23;20113;-96
2023/08/03 01:25:15;;;;;;;3.67;1.17;;;;;;;14.88;100.00;98401.22;7711905;23;20034;-96
2023/08/03 01:28:24;;;;;;;2.15;1.10;;;;;;;14.80;100.00;98395.19;7739793;23;20098;-96
2023/08/03 01:31:40;;;;;;;3.22;1.00;;;;;;;14.79;100.00;98406.63;7711014;23;20029;-96
2023/08/03 01:34:43;;;;;;;5.05;1.25;;;;;;;14.82;100.00;98416.63;7736773;23;20028;-96
2023/08/03 01:37:53;;;;;;;4.55;1.10;;;;;;;14.85;100.00;98416.22;7738717;23;20104;-95
2023/08/03 01:40:56;;;;;;;;;;;;;;;14.91;100.00;98406.03;7714344;23;20543;-95
2023/08/03 01:44:21;;;;;;;2.78;1.23;;;;;;;14.97;100.00;98403.41;7711498;23;19919;-95
2023/08/03 01:47:34;;;;;;;5.78;1.58;;;;;;;15.01;100.00;98386.38;7687768;23;20043;-94
2023/08/03 01:50:37;;;;;;;5.75;1.05;;;;;;;15.03;100.00;98388.75;7711333;23;20027;-95
2023/08/03 01:53:39;;;;;;;6.63;1.23;;;;;;;15.03;100.00;98384.38;7739041;23;20016;-95
2023/08/03 01:56:48;;;;;;;1.95;1.08;;;;;;;15.06;100.00;98380.56;7736590;23;20348;-94
2023/08/03 01:59:57;;;;;;;6.95;1.40;;;;;;;15.03;100.00;98375.75;7687947;23;20024;-94
2023/08/03 02:02:59;;;;;;;2.00;0.90;;;;;;;15.04;100.00;98377.34;7709406;23;20397;-94
2023/08/03 02:06:10;;;;;;;3.35;1.20;;;;;;;15.05;100.00;98381.56;7711367;23;20067;-95
2023/08/03 02:09:24;;;;;;;3.55;1.15;;;;;;;15.04;100.00;98380.75;7710892;23;20028;-95
2023/08/03 02:12:33;;;;;;;5.55;1.23;;;;;;;15.11;100.00;98365.13;7688005;23;20017;-95
2023/08/03 02:15:38;;;;;;;3.70;1.10;;;;;;;15.15;100.00;98355.06;7738399;23;20024;-95
2023/08/03 02:18:48;;;;;;;3.67;1.10;;;;;;;15.18;100.00;98357.28;7687210;23;20016;-95
2023/08/03 02:21:57;;;;;;;2.05;1.10;;;;;;;15.24;100.00;98361.69;7737131;23;20529;-94
2023/08/03 02:25:02;;;;;;;1.85;0.90;;;;;;;15.25;100.00;98361.47;7711476;23;20552;-95
2023/08/03 02:28:04;;;;;;;5.97;1.83;;;;;;;15.24;100.00;98346.03;7711470;23;20020;-96
2023/08/03 02:31:08;;;;;;;3.05;1.00;;;;;;;15.17;100.00;98350.47;7712706;23;20020;-96
2023/08/03 02:34:17;;;;;;;;;;;;;;;15.16;100.00;98354.88;7711687;23;20020;-94
2023/08/03 02:37:23;;;;;;;2.88;0.80;;;;;;;15.17;100.00;98355.69;7735167;23;19927;-96
2023/08/03 02:40:30;;;;;;;2.35;0.90;;;;;;;15.12;100.00;98351.06;7714714;23;20119;-96
2023/08/03 02:43:43;;;;;;;4.35;1.00;;;;;;;15.11;100.00;98343.47;7761875;22;20674;-96
2023/08/03 02:46:57;;;;;;;6.25;0.98;;;;;;;15.14;100.00;98335.25;7728802;23;20016;-96
2023/08/03 02:50:13;;;;;;;3.60;1.00;;;;;;;15.14;100.00;98341.25;7714906;23;20107;-96
2023/08/03 02:53:15;;;;;;;4.22;1.02;;;;;;;15.10;100.00;98344.47;7743391;23;20030;-96
2023/08/03 02:56:27;;;;;;;3.30;0.93;;;;;;;15.04;100.00;98336.47;7749123;23;20020;-96
2023/08/03 02:59:31;;;;;;;1.88;1.00;;;;;;;15.01;100.00;98336.88;7761594;22;20062;-94
2023/08/03 03:02:34;;;;;;;4.13;0.90;;;;;;;14.97;100.00;98340.09;7748060;22;20437;-94
2023/08/03 03:05:42;;;;;;;3.45;1.38;;;;;;;14.98;100.00;98339.06;7749043;22;20441;-93
2023/08/03 03:08:51;;;;;;;4.20;1.20;;;;;;;14.99;100.00;98341.47;7749477;22;20030;-92
2023/08/03 03:11:55;;;;;;;5.22;1.15;;;;;;;14.97;100.00;98340.88;7748808;22;20689;-92
2023/08/03 03:15:04;;;;;;;;;;;;;;;14.99;100.00;98340.69;7749858;22;20065;-90
2023/08/03 03:18:06;;;;;;;2.97;0.90;;;;;;;14.93;100.00;98344.09;7747771;22;20005;-92
2023/08/03 03:21:08;;;;;;;3.83;1.00;;;;;;;14.94;100.00;98345.72;7776369;22;20065;-92
2023/08/03 03:24:10;;;;;;;1.95;0.75;;;;;;;14.95;100.00;98353.31;7748519;22;20019;-91
2023/08/03 03:27:12;;;;;;;6.32;0.90;;;;;;;14.94;100.00;98343.09;7776563;22;20020;-90
2023/08/03 03:30:21;;;;;;;1.63;0.70;;;;;;;14.93;100.00;98333.66;7750174;22;20069;-90
2023/08/03 03:33:23;;;;;;;6.55;0.70;;;;;;;14.95;100.00;98339.47;7751298;22;20183;-90
2023/08/03 03:36:30;;;;;;;1.83;0.70;;;;;;;14.92;100.00;98326.88;7750908;22;20130;-90
2023/08/03 03:39:32;;;;;;;2.60;0.70;;;;;;;14.94;100.00;98324.88;7776612;22;20034;-92
2023/08/03 03:42:38;;;;;;;2.63;0.80;;;;;;;14.94;100.00;98343.09;7750238;22;20039;-93
2023/08/03 03:45:41;;;;;;;2.40;0.80;;;;;;;14.92;100.00;98334.69;7750386;22;20104;-89
2023/08/03 03:48:45;;;;;;;3.40;0.93;;;;;;;14.96;100.00;98356.72;7778518;22;20023;-89
2023/08/03 03:51:48;;;;;;;2.90;0.90;;;;;;;14.95;100.00;98358.50;7750603;22;20069;-91
2023/08/03 03:54:50;;;;;;;3.08;0.73;;;;;;;14.94;100.00;98371.75;7778051;22;20463;-93
2023/08/03 03:57:56;;;;;;;2.10;0.82;;;;;;;14.85;100.00;98369.34;7776228;22;20016;-94
2023/08/03 04:01:00;;;;;;;3.45;1.00;;;;;;;14.86;100.00;98365.75;7750489;22;20027;-95
2023/08/03 04:04:02;;;;;;;1.70;1.00;;;;;;;14.86;100.00;98367.56;7778881;22;20022;-96
2023/08/03 04:07:06;;;;;;;3.13;0.93;;;;;;;14.86;100.00;98376.19;7758446;22;20049;-95
2023/08/03 04:10:08;;;;;;;3.55;1.20;;;;;;;14.88;100.00;98375.97;7785415;22;20535;-95
2023/08/03 04:13:11;;;;;;;3.53;1.15;;;;;;;14.91;100.00;98393.00;7781707;22;20020;-94
2023/08/03 04:16:13;;;;;;;1.88;1.02;;;;;;;14.93;100.00;98390.97;7736418;22;20043;-96
2023/08/03 04:19:15;;;;;;;2.13;0.98;;;;;;;14.89;100.00;98395.81;7766636;22;20019;-96
2023/08/03 04:22:17;;;;;;;0.90;0.90;;;;;;;14.88;100.00;98398.59;7764263;22;20024;-95
2023/08/03 04:25:20;;;;;;;3.25;1.10;;;;;;;14.90;100.00;98413.03;7760166;22;20019;-96
2023/08/03 04:28:35;;;;;;;1.48;0.98;;;;;;;14.88;100.00;98409.84;7786540;22;20030;-95
2023/08/03 04:31:38;;;;;;;1.88;1.05;;;;;;;14.94;100.00;98423.88;7750623;22;20041;-93
2023/08/03 04:34:40;;;;;;;1.08;0.85;;;;;;;14.92;100.00;98418.03;7749191;22;20411;-92
2023/08/03 04:37:44;;;;;;;1.98;1.30;;;;;;;14.95;100.00;98433.28;7749965;22;20026;-92
2023/08/03 04:40:46;;;;;;;1.23;1.00;;;;;;;14.94;100.00;98426.47;7777799;22;20039;-91
2023/08/03 04:43:48;;;;;;;1.38;0.95;;;;;;;14.95;100.00;98426.25;7777817;22;20228;-91
2023/08/03 04:46:51;;;;;;;1.80;1.08;;;;;;;14.90;100.00;98428.66;7750097;22;20027;-90
2023/08/03 04:49:52;;;;;;;1.55;1.00;;;;;;;14.92;100.00;98444.09;7776697;22;20028;-90
2023/08/03 04:52:54;;;;;;;3.13;1.35;;;;;;;14.92;100.00;98450.09;7776167;22;20024;-89
2023/08/03 04:55:57;;;;;;;4.30;1.15;;;;;;;14.96;100.00;98442.72;7750272;22;20199;-90
2023/08/03 04:58:59;;;;;;;1.73;1.30;;;;;;;14.93;100.00;98435.28;7750392;22;20467;-92
2023/08/03 05:02:00;;;;;;;3.17;1.45;;;;;;;14.94;100.00;98444.72;7776268;22;20472;-92
2023/08/03 05:05:03;;;;;;;2.05;1.83;;;;;;;14.98;100.00;98445.88;7750175;22;20350;-92
2023/08/03 05:08:05;;;;;;;1.50;1.30;;;;;;;15.01;100.00;98445.50;7750176;22;20158;-90
2023/08/03 05:11:10;;;;;;;2.30;1.35;;;;;;;15.07;100.00;98460.31;7726197;22;20115;-91
2023/08/03 05:14:13;;;;;;;3.58;1.50;;;;;;;15.01;100.00;98468.97;7749193;22;20020;-92
2023/08/03 05:17:15;;;;;;;2.33;1.27;;;;;;;15.01;100.00;98466.34;7776834;22;20016;-91
2023/08/03 05:20:17;;;;;;;2.05;1.13;;;;;;;15.00;100.00;98452.50;7777685;22;20378;-91
2023/08/03 05:23:19;;;;;;;3.85;1.50;;;;;;;15.02;100.00;98470.56;7749808;22;20492;-91
2023/08/03 05:26:21;;;;;;;2.72;1.10;;;;;;;15.01;100.00;98474.97;7749890;22;20732;-92
2023/08/03 05:29:23;;;;;;;3.88;1.27;;;;;;;14.98;100.00;98477.16;7776874;22;20020;-90
2023/08/03 05:32:25;;;;;;;3.25;1.58;;;;;;;15.00;100.00;98486.38;7777120;22;20449;-91
2023/08/03 05:35:27;;;;;;;1.95;1.45;;;;;;;15.01;100.00;98497.63;7776803;22;20016;-89
2023/08/03 05:38:29;;;;;;;3.45;1.40;;;;;;;14.97;100.00;98510.22;7777218;22;20024;-91
2023/08/03 05:41:32;;;;;;;2.47;1.42;;;;;;;14.98;100.00;98498.81;7776760;22;20023;-91
2023/08/03 05:44:35;;;;;;;3.90;1.58;;;;;;;14.99;100.00;98497.81;7750078;22;20023;-93
2023/08/03 05:47:43;;;;;;;2.17;1.40;;;;;;;14.99;100.00;98499.63;7776770;22;20023;-92
2023/08/03 05:50:47;;;;;;;4.65;1.80;;;;;;;15.01;100.00;98501.03;7776661;22;20087;-90
2023/08/03 05:53:49;;;;;;;3.72;1.67;;;;;;;15.03;100.00;98496.41;7776650;22;20489;-91
2023/08/03 05:56:51;;;;;;;3.28;1.70;;;;;;;15.01;100.00;98508.03;7749611;22;20099;-91
2023/08/03 05:59:53;;;;;;;4.30;1.70;;;;;;;14.96;100.00;98505.22;7777076;22;20046;-92
2023/08/03 06:02:58;;;;;;;3.03;1.60;;;;;;;15.03;100.00;98519.03;7748777;22;20042;-93
2023/08/03 06:06:06;;;;;;;2.45;1.90;;;;;;;15.03;100.00;98513.84;7776051;22;20053;-95
2023/08/03 06:09:14;;;;;;;4.60;1.83;;;;;;;15.01;100.00;98515.84;7776916;22;20144;-95
2023/08/03 06:12:17;;;;;;;3.47;1.95;;;;;;;15.05;100.00;98527.47;7750344;22;20336;-95
2023/08/03 06:15:20;;;;;;;3.78;1.77;;;;;;;14.98;100.00;98539.69;7778990;22;20024;-94
2023/08/03 06:18:22;;;;;;;2.45;1.92;;;;;;;15.05;100.00;98540.50;7793954;22;20019;-96
2023/08/03 06:21:24;;;;;;;2.53;1.60;;;;;;;15.04;100.00;98531.09;7773374;22;20062;-96
2023/08/03 06:24:26;;;;;;;2.55;1.70;;;;;;;15.12;100.00;98530.09;7780723;22;20046;-96
2023/08/03 06:27:29;;;;;;;2.33;1.63;;;;;;;15.16;100.00;98528.69;7754597;22;20023;-96
2023/08/03 06:30:31;;;;;;;2.20;1.50;;;;;;;15.24;100.00;98534.50;7756424;22;20030;-96
2023/08/03 06:33:34;;;;;;;3.70;1.80;;;;;;;15.50;100.00;98530.28;7730027;22;20449;-96
2023/08/03 06:36:36;;;;;;;6.05;2.17;;;;;;;15.79;100.00;98534.28;7779264;22;20038;-95
2023/08/03 06:39:38;;;;;;;2.55;1.33;;;;;;;16.09;100.00;98539.03;7776920;22;20026;-96
2023/08/03 06:42:41;;;;;;;2.75;1.90;;;;;;;15.85;100.00;98530.03;7777554;22;20611;-95
2023/08/03 06:45:44;;;;;;;3.45;1.83;;;;;;;15.72;100.00;98525.66;7776743;22;20437;-95
2023/08/03 06:48:46;;;;;;;4.55;1.50;;;;;;;15.70;100.00;98540.72;7776828;22;20116;-96
2023/08/03 06:51:48;;;;;;;4.38;1.70;;;;;;;15.73;100.00;98547.34;7751220;22;20342;-95
2023/08/03 06:54:50;;;;;;;2.63;1.45;;;;;;;15.85;100.00;98543.09;7788465;22;20011;-96
2023/08/03 06:57:53;;;;;;;3.10;2.00;;;;;;;16.07;100.00;98546.25;7792710;22;20388;-96
2023/08/03 07:00:57;;;;;;;4.60;2.08;;;;;;;16.26;100.00;98558.44;7757994;22;20047;-96
2023/08/03 07:04:00;;;;;;;4.03;1.63;;;;;;;16.41;100.00;98566.00;7728795;22;20031;-95
2023/08/03 07:07:08;;;;;;;1.38;1.27;;;;;;;16.58;100.00;98559.31;7780535;22;20020;-96
2023/08/03 07:10:15;;;;;;;2.15;1.58;;;;;;;16.65;100.00;98561.91;7750617;22;20333;-96
2023/08/03 07:17:12;;;;;;;2.45;1.20;;;;;;;16.28;100.00;98559.03;7761432;22;20019;-96
2023/08/03 07:20:35;;;;;;;1.88;1.33;;;;;;;16.21;100.00;98557.47;7781449;22;20126;-95
2023/08/03 07:29:00;;;;;;;2.90;1.27;;;;;;;16.18;100.00;98560.50;7615506;23;20021;-96
2023/08/03 07:32:16;;;;;;;2.27;1.10;;;;;;;16.36;100.00;98576.28;7620060;23;20029;-96
2023/08/03 07:35:32;;;;;;;1.17;1.10;;;;;;;16.56;100.00;98568.38;7636501;23;20020;-96
2023/08/03 07:38:38;;;;;;;1.35;0.95;;;;;;;16.70;100.00;98567.28;7632013;23;20017;-96
2023/08/03 07:41:44;;;;;;;3.25;1.40;;;;;;;16.76;100.00;98557.81;7615866;23;20022;-96
2023/08/03 07:45:02;;;;;;;1.67;1.08;;;;;;;16.60;100.00;98559.13;7613626;23;20026;-96
2023/08/03 07:48:04;;;;;;;2.08;1.10;;;;;;;16.46;100.00;98560.19;7639291;23;20036;-96
2023/08/03 07:51:17;;;;;;;4.20;1.50;;;;;;;16.19;100.00;98580.34;7604074;23;20029;-93
2023/08/03 07:54:24;;;;;;;2.63;1.50;;;;;;;15.94;100.00;98587.03;7630045;23;20029;-92
2023/08/03 07:57:26;;;;;;;2.67;1.40;;;;;;;15.70;100.00;98598.91;7630441;23;20408;-94
2023/08/03 08:00:28;;;;;;;2.75;1.40;;;;;;;15.68;100.00;98610.53;7630718;23;20474;-96
2023/08/03 08:03:31;;;;;;;2.45;1.20;;;;;;;15.82;100.00;98603.50;7607746;23;20100;-96
2023/08/03 08:06:41;;;;;;;3.55;1.70;;;;;;;16.04;100.00;98617.94;7642164;23;20417;-96
2023/08/03 08:09:46;;;;;;;3.40;1.70;;;;;;;16.25;100.00;98614.28;7653528;23;20018;-96
2023/08/03 08:12:50;;;;;;;1.55;1.20;;;;;;;16.50;100.00;98616.22;7658754;23;20088;-96
2023/08/03 08:16:00;;;;;;;2.58;1.20;;;;;;;16.67;100.00;98614.75;7619027;23;20369;-96
2023/08/03 08:19:04;;;;;;;1.40;1.25;;;;;;;16.95;100.00;98609.19;7634015;23;20029;-96
2023/08/03 08:22:08;;;;;;;1.13;1.02;;;;;;;17.31;100.00;98601.72;7629786;23;20527;-96
2023/08/03 08:25:15;;;;;;;2.88;1.10;;;;;;;17.55;100.00;98600.16;7631045;23;20026;-96
2023/08/03 08:28:19;;;;;;;2.70;1.08;;;;;;;17.63;100.00;98589.41;7632955;23;20368;-96
2023/08/03 08:31:23;;;;;;;1.27;1.08;;;;;;;17.83;100.00;98589.25;7629591;23;20029;-96
2023/08/03 08:34:25;;;;;;;1.25;1.10;;;;;;;18.13;100.00;98578.88;7628175;23;20062;-95
2023/08/03 08:37:39;;;;;;;1.50;1.30;;;;;;;18.48;100.00;98573.88;7604846;23;20025;-96
2023/08/03 08:40:45;;;;;;;1.27;1.00;;;;;;;18.77;100.00;98581.19;7605950;23;20133;-96
2023/08/03 08:43:50;;;;;;;1.58;0.90;;;;;;;18.82;100.00;98582.09;7635625;23;20029;-96
2023/08/03 08:46:53;;;;;;;1.15;0.75;;;;;;;18.54;100.00;98589.72;7639877;23;20025;-96
2023/08/03 08:50:01;;;;;;;1.02;1.00;;;;;;;18.09;100.00;98598.69;7624931;23;20100;-96
2023/08/03 08:53:15;;;;;;;1.60;0.73;;;;;;;17.82;100.00;98596.31;7596892;23;20022;-96
2023/08/03 08:56:17;;;;;;;0.93;0.80;;;;;;;17.31;100.00;98615.59;7634220;23;20022;-96
2023/08/03 08:59:23;;;;;;;0.98;0.90;;;;;;;16.91;100.00;98655.06;7633558;23;20030;-93
2023/08/03 09:02:28;;;;;;;1.80;0.90;;;;;;;16.71;100.00;98643.84;7634050;23;20018;-96
2023/08/03 09:05:32;;;;;;;0.70;0.70;;;;;;;16.68;100.00;98655.53;7631846;23;20090;-96
2023/08/03 09:08:49;;;;;;;2.75;0.80;;;;;;;16.67;100.00;98671.41;7606826;23;20356;-96
2023/08/03 09:11:55;;;;;;;0.95;0.90;;;;;;;16.47;100.00;98677.50;7627545;23;20028;-93
2023/08/03 09:14:58;;;;;;;0.80;0.80;;;;;;;16.22;100.00;98681.75;7628984;23;20029;-94
2023/08/03 09:18:07;;;;;;;2.45;1.10;;;;;;;16.10;100.00;98703.25;7600484;23;20505;-93
2023/08/03 09:21:10;;;;;;;3.83;0.95;;;;;;;16.11;100.00;98709.28;7626785;23;20021;-92
2023/08/03 09:24:17;;;;;;;1.25;0.80;;;;;;;15.97;100.00;98718.91;7627786;23;20101;-93
2023/08/03 09:27:22;;;;;;;2.50;1.08;;;;;;;15.85;100.00;98712.69;7576795;23;20060;-91
2023/08/03 09:30:48;;;;;;;0.68;0.68;;;;;;;15.84;100.00;98711.88;7629658;23;20660;-93
2023/08/03 09:34:05;;;;;;;1.73;0.93;;;;;;;15.86;100.00;98728.16;7614376;23;20021;-92
2023/08/03 09:37:08;;;;;;;1.70;0.90;;;;;;;15.81;100.00;98727.16;7593400;23;20104;-92
2023/08/03 09:40:11;;;;;;;1.33;0.77;;;;;;;15.68;100.00;98728.69;7592858;23;20661;-93
2023/08/03 09:43:14;;;;;;;2.55;0.90;;;;;;;15.62;100.00;98750.34;7593518;23;20025;-93
2023/08/03 09:46:20;;;;;;;1.13;1.00;;;;;;;15.70;100.00;98758.03;7593694;23;20507;-94
2023/08/03 09:49:22;;;;;;;1.33;1.10;;;;;;;15.98;100.00;98758.88;7594244;23;20021;-94
2023/08/03 09:52:29;;;;;;;1.10;1.00;;;;;;;16.17;100.00;98746.81;7617396;23;20056;-96
2023/08/03 09:55:39;;;;;;;2.22;1.17;;;;;;;16.26;100.00;98762.09;7597533;23;20046;-96
2023/08/03 09:58:56;;;;;;;1.05;0.95;;;;;;;16.34;100.00;98767.09;7595465;23;20021;-95
2023/08/03 10:02:02;;;;;;;1.10;0.95;;;;;;;16.33;100.00;98770.72;7622474;23;20135;-96
2023/08/03 10:05:09;;;;;;;1.20;1.10;;;;;;;16.46;100.00;98780.34;7604112;23;20026;-96
2023/08/03 10:08:47;;;;;;;1.27;1.02;;;;;;;17.08;100.00;98780.84;7614066;23;20020;-96
2023/08/03 10:12:04;;;;;;;1.13;1.10;;;;;;;17.63;100.00;98755.03;7608343;23;20025;-96
2023/08/03 10:15:12;;;;;;;2.80;1.15;;;;;;;18.24;100.00;98745.78;7581287;23;20026;-96
2023/08/03 10:18:24;;;;;;;1.55;1.27;;;;;;;18.73;100.00;98728.41;7606136;23;20010;-96
2023/08/03 10:21:51;;;;;;;1.13;1.02;;;;;;;19.06;100.00;98722.00;7613951;23;20022;-96
2023/08/03 10:25:17;;;;;;;1.83;1.20;;;;;;;19.02;100.00;98712.94;7635064;23;20022;-96
2023/08/03 10:28:39;;;;;;;1.20;1.10;;;;;;;18.98;100.00;98722.28;7601061;23;20030;-96
2023/08/03 10:35:39;;;;;;;1.10;1.00;;;;;;;18.60;100.00;98739.00;7656012;22;20014;-96
2023/08/03 10:38:45;;;;;;;1.00;1.00;;;;;;;18.13;100.00;98735.22;7738971;23;20438;-96
2023/08/03 10:41:50;;;;;;;6.00;1.45;;;;;;;17.76;100.00;98755.97;7738278;22;20091;-95
2023/08/03 10:45:29;;;;;;;2.92;1.00;;;;;;;17.40;100.00;98771.28;7737582;23;20020;-93
2023/08/03 10:48:34;;;;;;;3.13;1.00;;;;;;;17.25;100.00;98785.63;7621918;23;20130;-94
2023/08/03 10:51:37;;;;;;;1.98;0.85;;;;;;;16.91;100.00;98796.19;7598098;23;20087;-96
2023/08/03 10:54:39;;;;;;;0.65;0.65;;;;;;;16.81;100.00;98811.50;7622754;23;20025;-95
2023/08/03 10:57:43;;;;;;;0.60;0.60;;;;;;;16.99;100.00;98816.06;7621297;23;20468;-95
2023/08/03 11:00:45;;;;;;;0.90;0.70;;;;;;;17.24;100.00;98826.66;7622898;23;20025;-95
2023/08/03 11:03:47;;;;;;;0.75;0.70;;;;;;;17.37;100.00;98828.44;7597255;23;20029;-96
2023/08/03 11:06:53;;;;;;;1.77;0.80;;;;;;;17.30;100.00;98830.28;7624097;23;20435;-96
2023/08/03 11:09:56;;;;;;;1.33;1.00;;;;;;;17.01;100.00;98825.31;7597250;23;20029;-96
2023/08/03 11:12:58;;;;;;;2.15;1.50;;;;;;;16.99;100.00;98835.19;7622950;23;20123;-96
2023/08/03 11:16:00;;;;;;;1.50;1.40;;;;;;;16.95;100.00;98839.22;7624420;23;20022;-96
2023/08/03 11:19:03;;;;;;;2.45;1.92;;;;;;;16.83;100.00;98840.84;7624873;23;20104;-96
2023/08/03 11:22:08;;;;;;;1.88;1.73;;;;;;;16.81;100.00;98847.28;7606925;23;20026;-96
2023/08/03 11:25:10;;;;;;;2.83;2.10;;;;;;;16.78;100.00;98851.91;7666182;23;20028;-96
2023/08/03 11:28:19;;;;;;;2.08;1.98;;;;;;;16.81;100.00;98860.34;7739808;23;20027;-96
2023/08/03 11:31:25;;;;;;;2.35;2.22;;;;;;;16.81;100.00;98866.38;7737334;23;20103;-93
2023/08/03 11:34:30;;;;;;;2.63;2.20;;;;;;;16.78;100.00;98874.63;7738570;23;20461;-94
2023/08/03 11:37:37;;;;;;;2.70;2.50;;;;;;;16.84;100.00;98876.41;7737111;23;20028;-94
2023/08/03 11:40:40;;;;;;;2.67;2.33;;;;;;;16.84;100.00;98881.63;7738558;23;20016;-94
2023/08/03 11:43:42;;;;;;;4.68;2.28;;;;;;;16.71;100.00;98895.47;7738905;23;20044;-91
2023/08/03 11:46:49;;;;;;;2.28;2.08;;;;;;;16.60;100.00;98900.53;7736679;23;20020;-93
2023/08/03 11:50:01;;;;;;;1.93;1.83;;;;;;;16.40;100.00;98897.88;7739169;23;20027;-92
2023/08/03 11:53:06;;;;;;;2.65;1.67;;;;;;;16.45;100.00;98917.19;7738462;23;20099;-93
2023/08/03 11:56:39;;;;;;;2.10;1.90;;;;;;;16.39;100.00;98919.78;7738928;23;20370;-92
2023/08/03 11:59:44;;;;;;;5.43;1.90;;;;;;;16.45;100.00;98926.81;7740627;23;20035;-90
2023/08/03 12:02:51;;;;;;;3.80;1.90;;;;;;;16.50;100.00;98914.78;7740127;23;20089;-91
2023/08/03 12:05:54;;;;;;;4.22;1.70;;;;;;;16.53;100.00;98919.59;7741550;23;20024;-92
2023/08/03 12:09:09;;;;;;;4.22;2.03;;;;;;;16.57;100.00;98925.22;7739454;23;20024;-91
2023/08/03 12:12:11;;;;;;;2.22;1.95;;;;;;;16.75;100.00;98932.47;7740872;23;20513;-90
2023/08/03 12:15:13;;;;;;;3.58;2.40;;;;;;;16.92;100.00;98933.72;7740812;23;20031;-90
2023/08/03 12:18:15;;;;;;;2.33;2.13;;;;;;;16.90;100.00;98942.78;7738557;23;20016;-90
2023/08/03 12:21:17;;;;;;;3.60;2.33;;;;;;;16.74;100.00;98946.53;7738789;23;20020;-90
2023/08/03 12:24:18;;;;;;;3.67;2.15;;;;;;;16.65;100.00;98964.22;7740308;23;20106;-90
2023/08/03 12:27:20;;;;;;;3.65;2.30;;;;;;;16.87;100.00;98951.81;7740679;22;20027;-91
2023/08/03 12:30:24;;;;;;;4.63;2.40;;;;;;;17.04;100.00;98957.41;7740574;23;20066;-93
2023/08/03 12:33:26;;;;;;;3.00;2.00;;;;;;;17.37;100.00;98962.63;7741098;23;20086;-92
2023/08/03 12:36:28;;;;;;;3.33;1.90;;;;;;;17.80;100.00;98962.16;7741034;23;20543;-94
2023/08/03 12:39:30;;;;;;;2.25;1.80;;;;;;;17.99;100.00;98951.84;7740868;23;20024;-95
2023/08/03 12:42:32;;;;;;;2.45;2.25;;;;;;;18.02;100.00;98959.25;7740138;23;20118;-96
2023/08/03 12:45:34;;;;;;;2.50;2.00;;;;;;;18.26;100.00;98955.94;7740873;23;20020;-96
2023/08/03 12:48:36;;;;;;;1.80;1.70;;;;;;;18.86;100.00;98944.28;7715563;23;20039;-96
2023/08/03 12:51:38;;;;;;;1.60;1.50;;;;;;;19.34;100.00;98938.41;7744717;23;20016;-96
2023/08/03 12:54:40;;;;;;;2.10;1.52;;;;;;;19.41;100.00;98931.25;7748927;23;20050;-96
2023/08/03 12:57:43;;;;;;;1.45;1.35;;;;;;;19.40;100.00;98934.88;7765455;22;20107;-96
2023/08/03 13:01:04;;;;;;;1.73;1.63;;;;;;;19.58;100.00;98929.66;7731052;22;20012;-97
2023/08/03 13:04:20;;;;;;;2.10;1.50;;;;;;;19.71;100.00;98933.19;7756405;22;20023;-96
2023/08/03 13:07:57;;;;;;;1.50;1.40;;;;;;;19.62;100.00;98932.63;7753921;22;20056;-96
2023/08/03 13:11:09;;;;;;;1.63;1.50;;;;;;;19.69;100.00;98922.91;7667487;23;20025;-96
2023/08/03 13:14:25;;;;;;;1.50;1.40;;;;;;;19.94;100.00;98933.28;7646743;23;20021;-96
2023/08/03 13:17:28;;;;;;;1.50;1.40;;;;;;;20.08;100.00;98930.53;7640583;23;20017;-96
2023/08/03 13:20:37;;;;;;;1.75;1.25;;;;;;;20.27;100.00;98945.19;7647354;23;20029;-96
2023/08/03 13:23:44;;;;;;;1.50;1.25;;;;;;;20.42;100.00;98932.47;7621520;23;20017;-96
2023/08/03 13:26:47;;;;;;;1.17;1.08;;;;;;;20.53;100.00;98922.19;7621643;23;20035;-96
2023/08/03 13:29:52;;;;;;;2.08;1.20;;;;;;;20.78;100.00;98925.47;7646006;23;20017;-96
2023/08/03 13:32:55;;;;;;;1.15;1.05;;;;;;;20.85;100.00;98923.53;7645540;23;20028;-96
2023/08/03 13:35:57;;;;;;;1.23;1.13;;;;;;;20.83;100.00;98922.16;7665447;23;20042;-96
2023/08/03 13:39:00;;;;;;;2.22;1.10;;;;;;;21.00;100.00;98927.56;7638578;23;20329;-96
2023/08/03 13:42:02;;;;;;;1.30;1.20;;;;;;;21.41;100.00;98939.78;7665142;23;20549;-96
2023/08/03 13:45:06;;;;;;;2.30;1.00;;;;;;;21.65;100.00;98935.28;7634560;23;20579;-96
2023/08/03 13:48:08;;;;;;;1.30;1.00;;;;;;;21.79;100.00;98929.75;7638920;23;20025;-96
2023/08/03 13:51:11;;;;;;;1.15;1.00;;;;;;;21.79;100.00;98938.47;7660079;23;20024;-96
2023/08/03 13:54:13;;;;;;;1.35;1.25;;;;;;;21.95;100.00;98936.91;7637582;23;20403;-96
2023/08/03 13:57:18;;;;;;;1.50;1.40;;;;;;;22.21;100.00;98950.59;7661106;23;20028;-96
2023/08/03 14:00:23;;;;;;;1.20;1.10;;;;;;;22.21;100.00;98961.13;7637518;23;20194;-96
2023/08/03 14:03:25;;;;;;;1.58;1.13;;;;;;;22.37;100.00;98963.03;7638300;23;20096;-96
2023/08/03 14:06:36;;;;;;;1.52;1.00;;;;;;;22.33;100.00;98967.97;7664004;23;20013;-96
2023/08/03 14:10:01;;;;;;;1.02;0.93;;;;;;;22.55;100.00;98976.00;7643443;23;20040;-95
2023/08/03 14:13:08;;;;;;;1.98;1.17;;;;;;;22.53;100.00;98985.19;7664292;23;20407;-96
2023/08/03 14:16:11;;;;;;;0.90;0.90;;;;;;;22.83;100.00;98987.56;7637447;23;20027;-96
2023/08/03 14:19:25;;;;;;;1.30;0.98;;;;;;;22.78;100.00;99003.28;7664339;23;20017;-96
2023/08/03 14:22:29;;;;;;;1.75;1.10;;;;;;;22.97;100.00;98994.13;7636172;23;20032;-96
2023/08/03 14:25:31;;;;;;;2.33;1.15;;;;;;;23.26;100.00;98996.69;7637756;23;20087;-96
2023/08/03 14:28:37;;;;;;;1.25;1.17;;;;;;;23.50;100.00;99001.75;7663792;23;20013;-96
2023/08/03 14:31:42;;;;;;;11.77;1.40;;;;;;;23.25;100.00;99005.63;7664948;23;20021;-96
2023/08/03 14:34:45;;;;;;;2.70;1.30;;;;;;;23.17;100.00;99006.03;7612318;23;20430;-96
2023/08/03 14:37:54;;;;;;;2.50;1.93;;;;;;;23.15;100.00;99008.13;7637570;23;20111;-96
2023/08/03 14:41:01;;;;;;;1.52;1.40;;;;;;;22.98;100.00;98995.75;7638960;23;20017;-96